Terminal Aerodrome Forecast
Issued by NWS

Home | Current Version | Previous Version | Text Only | Print | Product List | Glossary On
Versions: 1 2 3 4 5 6 7 8 9 10 11 12 13 14 15 16 17 18 19
895
FTUS43 KDLH 200531
TAFHIB
TAF
KHIB 200531Z 2006/2106 13009KT P6SM SCT090 BKN200 WS020/18045KT
     FM201200 13010KT P6SM FEW015 OVC150 WS020/18050KT
     FM201600 14010KT 6SM -DZ BR SCT007 OVC015 WS020/17040KT
     FM201800 15008G14KT 4SM -RA BR VCTS OVC006CB
     FM202300 15004KT 2SM -RA BR OVC005
     FM210200 26004KT 6SM -RA BR BKN010 OVC050
     FM210400 28006KT P6SM SCT010=

USA.gov is the U.S. government's official web portal to all federal, state and local government web resources and services.